Time;durP1;ratioP1;P1;durP2;ratioP2;P2;SDS_P1;SDS_P2;PMS_P1;PMS_P2;Temp;Humidity;BMP_temperature;BMP_pressure;BME280_temperature;BME280_humidity;BME280_pressure;Samples;Min_cycle;Max_cycle;Signal;HPM_P1;HPM_P2
2024/02/02 00:01:35;;;;;;;7.18;3.35;;;;;;;;;;5096363;28;20028;-63
2024/02/02 00:04:02;;;;;;;8.68;3.53;;;;;;;;;;5096349;28;20012;-56
2024/02/02 00:06:31;;;;;;;6.50;3.72;;;;;;;;;;5105580;22;20056;-56
2024/02/02 00:09:28;;;;;;;7.15;3.35;;;;;;;;;;5099684;22;20402;-64
2024/02/02 00:11:54;;;;;;;9.98;3.33;;;;;;;;;;5098444;22;21575;-63
2024/02/02 00:14:20;;;;;;;5.57;3.15;;;;;;;;;;5104568;22;20259;-56
2024/02/02 00:16:45;;;;;;;6.25;3.50;;;;;;;;;;5052212;28;20053;-57
2024/02/02 00:19:11;;;;;;;7.10;3.25;;;;;;;;;;5056217;28;20032;-57
2024/02/02 00:21:36;;;;;;;6.97;3.35;;;;;;;;;;5056008;28;20033;-56
2024/02/02 00:24:01;;;;;;;9.18;3.38;;;;;;;;;;5037808;28;20152;-56
2024/02/02 00:26:27;;;;;;;7.30;3.70;;;;;;;;;;5038154;28;20352;-57
2024/02/02 00:28:52;;;;;;;6.50;2.92;;;;;;;;;;5056157;28;20108;-56
2024/02/02 00:31:21;;;;;;;11.00;4.18;;;;;;;;;;5055798;28;20494;-57
2024/02/02 00:33:47;;;;;;;7.20;3.25;;;;;;;;;;5055767;28;20039;-56
2024/02/02 00:36:12;;;;;;;6.85;3.17;;;;;;;;;;5055489;28;20041;-56
2024/02/02 00:38:38;;;;;;;7.35;3.08;;;;;;;;;;5055619;28;20028;-56
2024/02/02 00:41:03;;;;;;;8.02;3.40;;;;;;;;;;5055656;28;20475;-56
2024/02/02 00:43:29;;;;;;;6.68;3.22;;;;;;;;;;5055581;28;20470;-55
2024/02/02 00:45:54;;;;;;;7.03;3.08;;;;;;;;;;5055297;28;20410;-55
2024/02/02 00:48:20;;;;;;;6.32;3.35;;;;;;;;;;5055504;28;20025;-55
2024/02/02 00:50:45;;;;;;;7.40;3.78;;;;;;;;;;5055211;28;20390;-55
2024/02/02 00:53:11;;;;;;;7.85;3.33;;;;;;;;;;5055395;28;20032;-56
2024/02/02 00:55:37;;;;;;;10.27;3.80;;;;;;;;;;5055382;28;20426;-56
2024/02/02 00:58:02;;;;;;;5.53;3.08;;;;;;;;;;5055329;28;20024;-57
2024/02/02 01:00:28;;;;;;;8.35;3.30;;;;;;;;;;5054928;28;20120;-57
2024/02/02 01:02:53;;;;;;;8.48;3.40;;;;;;;;;;5055276;28;20043;-57
2024/02/02 01:05:19;;;;;;;6.95;2.83;;;;;;;;;;5037679;28;20044;-57
2024/02/02 01:07:44;;;;;;;6.60;3.40;;;;;;;;;;5054865;28;20063;-57
2024/02/02 01:10:16;;;;;;;6.93;3.10;;;;;;;;;;5055078;28;20032;-57
2024/02/02 01:12:42;;;;;;;11.90;3.25;;;;;;;;;;5055018;28;20033;-57
2024/02/02 01:15:07;;;;;;;6.40;2.80;;;;;;;;;;5054542;28;20044;-57
2024/02/02 01:17:33;;;;;;;8.60;2.60;;;;;;;;;;5055193;28;20041;-57
2024/02/02 01:20:03;;;;;;;6.05;2.63;;;;;;;;;;5055104;28;20065;-57
2024/02/02 01:22:28;;;;;;;8.07;2.70;;;;;;;;;;5054593;28;20078;-57
2024/02/02 01:24:54;;;;;;;8.48;2.85;;;;;;;;;;5054520;28;20029;-56
2024/02/02 01:27:19;;;;;;;6.30;2.60;;;;;;;;;;5054814;28;20036;-56
2024/02/02 01:29:44;;;;;;;7.95;2.97;;;;;;;;;;5054426;28;20112;-56
2024/02/02 01:32:10;;;;;;;4.95;2.53;;;;;;;;;;5054354;28;20074;-56
2024/02/02 01:34:35;;;;;;;5.53;2.50;;;;;;;;;;5054919;28;20043;-57
2024/02/02 01:37:01;;;;;;;8.30;3.17;;;;;;;;;;5036832;28;20028;-57
2024/02/02 01:39:26;;;;;;;6.68;2.65;;;;;;;;;;5054163;28;20029;-57
2024/02/02 01:41:51;;;;;;;5.68;2.50;;;;;;;;;;5036388;28;20425;-57
2024/02/02 01:44:17;;;;;;;5.93;2.35;;;;;;;;;;5036738;28;20355;-57
2024/02/02 01:46:49;;;;;;;6.63;2.70;;;;;;;;;;5054454;28;20026;-56
2024/02/02 01:49:14;;;;;;;6.43;2.28;;;;;;;;;;5054409;28;20035;-56
2024/02/02 01:51:40;;;;;;;7.15;2.38;;;;;;;;;;5054050;28;20463;-56
2024/02/02 01:54:05;;;;;;;7.97;2.45;;;;;;;;;;5054018;28;20475;-56
2024/02/02 01:56:31;;;;;;;5.47;2.45;;;;;;;;;;5054539;28;20040;-56
2024/02/02 01:58:56;;;;;;;4.28;2.00;;;;;;;;;;5036420;28;20024;-56
2024/02/02 02:01:22;;;;;;;4.70;2.05;;;;;;;;;;5053877;28;20067;-56
2024/02/02 02:03:47;;;;;;;8.60;2.25;;;;;;;;;;5054141;28;20051;-55
2024/02/02 02:06:13;;;;;;;7.68;2.38;;;;;;;;;;5054086;28;20445;-55
2024/02/02 02:08:39;;;;;;;4.05;2.13;;;;;;;;;;5054380;28;20079;-56
2024/02/02 02:11:06;;;;;;;7.18;2.47;;;;;;;;;;5054057;28;20071;-57
2024/02/02 02:13:32;;;;;;;8.30;2.22;;;;;;;;;;5053721;28;20051;-56
2024/02/02 02:15:58;;;;;;;8.43;2.33;;;;;;;;;;5053593;28;20052;-56
2024/02/02 02:18:23;;;;;;;7.47;2.10;;;;;;;;;;5053935;28;20379;-56
2024/02/02 02:20:50;;;;;;;5.90;2.17;;;;;;;;;;5036070;28;20041;-57
2024/02/02 02:23:15;;;;;;;4.63;2.25;;;;;;;;;;5053897;28;20055;-57
2024/02/02 02:25:42;;;;;;;5.75;2.22;;;;;;;;;;5035848;28;20420;-56
2024/02/02 02:28:07;;;;;;;4.55;2.00;;;;;;;;;;5054119;28;20463;-56
2024/02/02 02:30:33;;;;;;;5.82;2.53;;;;;;;;;;5053578;28;20036;-57
2024/02/02 02:32:58;;;;;;;7.55;1.98;;;;;;;;;;5053773;28;20033;-57
2024/02/02 02:35:24;;;;;;;7.13;2.40;;;;;;;;;;5054060;28;20025;-57
2024/02/02 02:37:49;;;;;;;6.97;2.45;;;;;;;;;;5053730;28;20037;-57
2024/02/02 02:40:15;;;;;;;4.82;2.08;;;;;;;;;;5056984;28;20051;-57
2024/02/02 02:42:40;;;;;;;5.60;2.08;;;;;;;;;;5057608;28;20029;-57
2024/02/02 02:45:06;;;;;;;6.22;1.90;;;;;;;;;;5039798;28;20463;-56
2024/02/02 02:47:32;;;;;;;3.42;1.80;;;;;;;;;;5057780;28;20013;-56
2024/02/02 02:49:57;;;;;;;8.25;2.28;;;;;;;;;;5058038;28;20360;-57
2024/02/02 02:52:23;;;;;;;7.22;1.70;;;;;;;;;;5057947;28;20043;-57
2024/02/02 02:54:48;;;;;;;3.38;1.80;;;;;;;;;;5057364;28;20029;-56
2024/02/02 02:57:13;;;;;;;7.10;2.00;;;;;;;;;;5057632;28;20413;-56
2024/02/02 02:59:39;;;;;;;6.18;1.80;;;;;;;;;;5057196;28;20025;-56
2024/02/02 03:02:04;;;;;;;8.02;2.28;;;;;;;;;;5022916;28;20154;-56
2024/02/02 03:04:30;;;;;;;6.35;2.30;;;;;;;;;;5057726;28;20024;-56
2024/02/02 03:06:55;;;;;;;6.00;2.20;;;;;;;;;;5057168;28;20033;-56
2024/02/02 03:09:21;;;;;;;5.25;2.33;;;;;;;;;;5057339;28;20111;-55
2024/02/02 03:11:46;;;;;;;5.00;1.92;;;;;;;;;;5057029;28;20025;-55
2024/02/02 03:14:13;;;;;;;6.60;1.90;;;;;;;;;;5057557;28;20049;-56
2024/02/02 03:16:38;;;;;;;5.90;1.77;;;;;;;;;;5056747;28;20053;-56
2024/02/02 03:19:04;;;;;;;5.07;2.22;;;;;;;;;;5056815;28;20168;-55
2024/02/02 03:21:29;;;;;;;5.15;2.00;;;;;;;;;;5056842;28;20037;-55
2024/02/02 03:23:55;;;;;;;4.60;1.75;;;;;;;;;;5056832;28;20353;-56
2024/02/02 03:26:20;;;;;;;5.15;2.05;;;;;;;;;;5057326;28;20087;-55
2024/02/02 03:28:45;;;;;;;5.38;2.17;;;;;;;;;;5056740;28;20031;-55
2024/02/02 03:31:11;;;;;;;4.78;1.92;;;;;;;;;;5056951;28;20083;-55
2024/02/02 03:33:36;;;;;;;5.40;1.90;;;;;;;;;;5056650;28;20105;-56
2024/02/02 03:36:02;;;;;;;4.05;1.98;;;;;;;;;;5056607;28;20383;-56
2024/02/02 03:38:27;;;;;;;5.13;2.03;;;;;;;;;;5056888;28;20112;-56
2024/02/02 03:40:52;;;;;;;7.38;2.35;;;;;;;;;;5056468;28;20025;-56
2024/02/02 03:43:18;;;;;;;4.97;2.15;;;;;;;;;;5056490;28;20025;-56
2024/02/02 03:45:43;;;;;;;7.78;2.33;;;;;;;;;;5038566;28;20485;-56
2024/02/02 03:48:09;;;;;;;4.50;2.08;;;;;;;;;;5038542;28;20058;-56
2024/02/02 03:50:34;;;;;;;7.70;1.80;;;;;;;;;;5056272;28;20463;-56
2024/02/02 03:53:00;;;;;;;6.97;2.65;;;;;;;;;;5021963;28;20109;-55
2024/02/02 03:55:26;;;;;;;5.95;2.47;;;;;;;;;;5056833;28;20039;-56
2024/02/02 03:57:51;;;;;;;5.75;2.10;;;;;;;;;;5056176;28;20100;-56
2024/02/02 04:00:17;;;;;;;5.72;2.30;;;;;;;;;;5056375;28;20478;-56
2024/02/02 04:02:45;;;;;;;6.70;2.38;;;;;;;;;;5038666;28;20032;-56
2024/02/02 04:05:10;;;;;;;9.68;2.63;;;;;;;;;;5056353;28;20025;-55
2024/02/02 04:07:36;;;;;;;6.20;2.40;;;;;;;;;;5056284;28;20036;-56
2024/02/02 04:10:01;;;;;;;8.07;3.10;;;;;;;;;;5055979;28;20056;-56
2024/02/02 04:12:27;;;;;;;8.25;3.17;;;;;;;;;;5056219;28;20068;-56
2024/02/02 04:14:52;;;;;;;7.07;2.60;;;;;;;;;;5055977;28;20045;-57
2024/02/02 04:17:18;;;;;;;7.00;2.90;;;;;;;;;;5038022;28;20075;-56
2024/02/02 04:19:44;;;;;;;7.35;2.85;;;;;;;;;;5055990;28;20423;-56
2024/02/02 04:22:10;;;;;;;8.52;2.55;;;;;;;;;;5055733;28;20035;-56
2024/02/02 04:24:36;;;;;;;5.22;2.25;;;;;;;;;;5038226;28;20463;-56
2024/02/02 04:27:02;;;;;;;6.93;2.60;;;;;;;;;;5055666;28;20164;-56
2024/02/02 04:29:27;;;;;;;7.00;1.98;;;;;;;;;;5055652;28;20497;-57
2024/02/02 04:31:53;;;;;;;5.95;2.28;;;;;;;;;;5055872;28;20406;-56
2024/02/02 04:34:18;;;;;;;9.10;2.75;;;;;;;;;;5055572;28;20107;-55
2024/02/02 04:36:43;;;;;;;6.50;2.88;;;;;;;;;;5037934;28;20033;-55
2024/02/02 04:39:09;;;;;;;6.53;2.47;;;;;;;;;;5055886;28;20029;-55
2024/02/02 04:41:34;;;;;;;5.43;2.47;;;;;;;;;;5055684;28;20466;-56
2024/02/02 04:44:00;;;;;;;6.70;2.22;;;;;;;;;;5055302;28;20021;-56
2024/02/02 04:46:25;;;;;;;4.85;2.10;;;;;;;;;;5055751;28;20039;-56
2024/02/02 04:48:51;;;;;;;5.00;2.13;;;;;;;;;;5055752;28;20017;-56
2024/02/02 04:51:17;;;;;;;6.65;2.30;;;;;;;;;;5055483;28;20033;-55
2024/02/02 04:53:42;;;;;;;6.05;2.53;;;;;;;;;;5055429;28;20028;-55
2024/02/02 04:56:08;;;;;;;7.13;2.55;;;;;;;;;;5055351;28;20455;-55
2024/02/02 04:58:33;;;;;;;6.72;2.45;;;;;;;;;;5054569;28;20036;-55
2024/02/02 05:00:58;;;;;;;7.70;2.60;;;;;;;;;;5054237;28;20119;-56
2024/02/02 05:03:24;;;;;;;6.00;2.38;;;;;;;;;;5055317;28;20025;-55
2024/02/02 05:05:50;;;;;;;4.63;2.40;;;;;;;;;;5054938;28;20012;-54
2024/02/02 05:08:15;;;;;;;7.22;2.83;;;;;;;;;;5055155;28;20455;-54
2024/02/02 05:10:41;;;;;;;5.88;2.22;;;;;;;;;;5053297;28;20039;-54
2024/02/02 05:13:06;;;;;;;5.72;2.65;;;;;;;;;;5052824;28;20173;-55
2024/02/02 05:15:32;;;;;;;6.63;2.35;;;;;;;;;;5052662;28;20079;-53
2024/02/02 05:17:58;;;;;;;7.35;2.95;;;;;;;;;;5052868;28;20032;-53
2024/02/02 05:20:23;;;;;;;6.55;2.15;;;;;;;;;;5052690;28;20390;-53
2024/02/02 05:22:48;;;;;;;8.15;2.78;;;;;;;;;;5052673;28;20021;-53
2024/02/02 05:25:14;;;;;;;6.47;2.15;;;;;;;;;;5035610;28;20447;-53
2024/02/02 05:27:39;;;;;;;4.18;1.98;;;;;;;;;;5055040;28;20016;-53
2024/02/02 05:30:05;;;;;;;4.07;1.80;;;;;;;;;;5054751;28;20025;-53
2024/02/02 05:32:30;;;;;;;5.93;2.22;;;;;;;;;;5054440;28;20017;-53
2024/02/02 05:34:56;;;;;;;5.55;2.22;;;;;;;;;;5054363;28;20032;-53
2024/02/02 05:37:21;;;;;;;2.95;1.92;;;;;;;;;;5054650;28;20029;-53
2024/02/02 05:39:47;;;;;;;6.82;2.53;;;;;;;;;;5054513;28;20039;-53
2024/02/02 05:42:13;;;;;;;6.00;2.53;;;;;;;;;;5054805;28;20348;-53
2024/02/02 05:44:40;;;;;;;6.07;2.75;;;;;;;;;;5054461;28;20060;-53
2024/02/02 05:47:05;;;;;;;7.70;2.40;;;;;;;;;;5054190;28;20029;-53
2024/02/02 05:49:31;;;;;;;5.50;2.50;;;;;;;;;;5054396;28;20040;-52
2024/02/02 05:51:56;;;;;;;5.43;2.35;;;;;;;;;;5036373;28;20025;-53
2024/02/02 05:54:22;;;;;;;7.75;2.65;;;;;;;;;;5054601;28;20474;-53
2024/02/02 05:56:47;;;;;;;4.93;2.17;;;;;;;;;;5054560;28;20067;-53
2024/02/02 05:59:12;;;;;;;4.18;2.03;;;;;;;;;;5053895;28;20364;-53
2024/02/02 06:01:38;;;;;;;5.88;2.28;;;;;;;;;;5053952;28;20448;-52
2024/02/02 06:04:03;;;;;;;5.53;2.15;;;;;;;;;;5054167;28;20035;-52
2024/02/02 06:06:29;;;;;;;8.73;2.17;;;;;;;;;;5053857;28;20033;-52
2024/02/02 06:08:54;;;;;;;6.32;2.22;;;;;;;;;;5054121;28;20025;-52
2024/02/02 06:11:19;;;;;;;4.55;2.42;;;;;;;;;;5054039;28;20348;-53
2024/02/02 06:13:45;;;;;;;4.85;1.95;;;;;;;;;;5053208;28;20029;-53
2024/02/02 06:16:10;;;;;;;6.10;2.17;;;;;;;;;;5053506;28;20437;-52
2024/02/02 06:18:36;;;;;;;5.10;2.20;;;;;;;;;;5053651;28;20029;-52
2024/02/02 06:21:02;;;;;;;8.48;2.45;;;;;;;;;;5052877;28;20037;-52
2024/02/02 06:23:27;;;;;;;5.40;2.20;;;;;;;;;;5051111;28;20107;-52
2024/02/02 06:25:53;;;;;;;4.47;2.00;;;;;;;;;;5050618;28;20474;-52
2024/02/02 06:28:18;;;;;;;3.45;2.05;;;;;;;;;;5032848;28;20029;-52
2024/02/02 06:30:48;;;;;;;7.20;1.90;;;;;;;;;;5050869;28;20029;-52
2024/02/02 06:33:15;;;;;;;5.45;2.22;;;;;;;;;;5032973;28;20029;-52
2024/02/02 06:35:41;;;;;;;5.55;2.20;;;;;;;;;;5050164;28;20324;-53
2024/02/02 06:38:07;;;;;;;5.00;2.20;;;;;;;;;;5050626;28;20115;-52
2024/02/02 06:40:32;;;;;;;5.22;2.45;;;;;;;;;;5051126;28;20466;-52
2024/02/02 06:42:58;;;;;;;7.25;2.63;;;;;;;;;;5051285;28;20025;-52
2024/02/02 06:45:23;;;;;;;4.15;2.00;;;;;;;;;;5051441;28;20021;-52
2024/02/02 06:47:49;;;;;;;4.45;2.50;;;;;;;;;;5051438;28;20422;-52
2024/02/02 06:50:14;;;;;;;4.20;2.30;;;;;;;;;;5051543;28;20108;-52
2024/02/02 06:52:40;;;;;;;4.28;1.80;;;;;;;;;;5052028;28;20035;-52
2024/02/02 06:55:05;;;;;;;7.68;2.38;;;;;;;;;;5053336;28;20378;-52
2024/02/02 06:57:31;;;;;;;5.03;2.00;;;;;;;;;;5053562;28;20518;-52
2024/02/02 06:59:58;;;;;;;5.43;2.35;;;;;;;;;;5053482;28;20055;-52
2024/02/02 07:02:26;;;;;;;4.72;2.38;;;;;;;;;;5035850;28;20100;-52
2024/02/02 07:04:53;;;;;;;7.03;2.33;;;;;;;;;;5035365;28;20059;-52
2024/02/02 07:07:19;;;;;;;7.53;2.25;;;;;;;;;;5053995;28;20029;-52
2024/02/02 07:09:48;;;;;;;5.65;2.28;;;;;;;;;;5053209;28;20356;-52
2024/02/02 07:12:26;;;;;;;6.97;2.50;;;;;;;;;;5053471;28;20025;-53
2024/02/02 07:14:51;;;;;;;4.93;1.80;;;;;;;;;;5053168;28;20310;-53
2024/02/02 07:17:26;;;;;;;6.35;2.72;;;;;;;;;;5053125;28;20036;-52
2024/02/02 07:19:51;;;;;;;6.68;2.13;;;;;;;;;;5053314;28;20378;-53
2024/02/02 07:22:37;;;;;;;6.88;2.28;;;;;;;;;;5053095;28;20029;-53
2024/02/02 07:25:06;;;;;;;7.53;2.67;;;;;;;;;;5036637;28;20036;-52
2024/02/02 07:27:34;;;;;;;6.47;2.38;;;;;;;;;;5057363;28;20037;-52
2024/02/02 07:30:00;;;;;;;8.40;2.72;;;;;;;;;;5056970;28;20386;-53
2024/02/02 07:32:25;;;;;;;5.30;2.20;;;;;;;;;;5056743;28;20032;-53
2024/02/02 07:34:51;;;;;;;6.40;2.17;;;;;;;;;;5057224;28;20036;-53
2024/02/02 07:37:36;;;;;;;6.75;2.20;;;;;;;;;;5039201;28;20033;-53
2024/02/02 07:40:22;;;;;;;6.22;2.22;;;;;;;;;;5055691;28;20033;-53
2024/02/02 07:42:47;;;;;;;7.45;2.67;;;;;;;;;;5056874;28;20410;-53
2024/02/02 07:45:12;;;;;;;5.95;2.53;;;;;;;;;;5038607;28;20021;-53
2024/02/02 07:47:38;;;;;;;5.28;2.47;;;;;;;;;;5056686;28;20025;-53
2024/02/02 07:50:03;;;;;;;6.43;2.40;;;;;;;;;;5056363;28;20035;-53
2024/02/02 07:52:29;;;;;;;7.55;2.65;;;;;;;;;;5077444;22;20606;-62
2024/02/02 07:54:55;;;;;;;9.20;2.67;;;;;;;;;;5094583;22;20053;-61
2024/02/02 07:57:28;;;;;;;5.72;2.55;;;;;;;;;;5085581;22;20060;-56
2024/02/02 07:59:53;;;;;;;9.75;2.80;;;;;;;;;;5076927;23;20114;-62
2024/02/02 08:02:19;;;;;;;6.82;2.65;;;;;;;;;;5070121;22;20053;-61
2024/02/02 08:04:44;;;;;;;10.18;3.05;;;;;;;;;;5056128;28;20489;-62
2024/02/02 08:07:09;;;;;;;2.47;1.52;;;;;;;;;;5056106;28;20021;-62
2024/02/02 08:09:35;;;;;;;5.57;2.50;;;;;;;;;;5056012;28;20356;-61
2024/02/02 08:12:00;;;;;;;8.75;2.33;;;;;;;;;;5038131;28;20036;-62
2024/02/02 08:14:26;;;;;;;7.47;2.33;;;;;;;;;;5056219;28;20017;-61
2024/02/02 08:16:51;;;;;;;7.25;2.80;;;;;;;;;;5055908;28;20124;-61
2024/02/02 08:19:17;;;;;;;5.38;2.38;;;;;;;;;;5055774;28;20036;-61
2024/02/02 08:21:43;;;;;;;5.35;2.53;;;;;;;;;;5056359;28;20138;-62
2024/02/02 08:24:08;;;;;;;7.18;2.78;;;;;;;;;;5055794;28;20455;-62
2024/02/02 08:26:33;;;;;;;5.80;2.45;;;;;;;;;;5055983;28;20075;-61
2024/02/02 08:28:59;;;;;;;9.00;3.42;;;;;;;;;;5056217;28;20009;-62
2024/02/02 08:42:51;;;;;;;5.28;2.15;;;;;;;;;;5090873;27;20809;-54
2024/02/02 08:45:35;;;;;;;9.18;3.08;;;;;;;;;;5090777;28;20103;-53
2024/02/02 08:48:01;;;;;;;5.82;2.90;;;;;;;;;;5090790;28;20039;-53
2024/02/02 08:50:26;;;;;;;8.15;2.90;;;;;;;;;;5090706;28;20379;-54
2024/02/02 08:52:53;;;;;;;5.68;2.70;;;;;;;;;;5090749;28;20016;-54
2024/02/02 08:55:21;;;;;;;5.25;2.50;;;;;;;;;;5090717;28;20033;-54
2024/02/02 08:58:09;;;;;;;3.95;2.28;;;;;;;;;;5090677;28;20074;-53
2024/02/02 09:00:38;;;;;;;6.13;3.00;;;;;;;;;;5090607;28;20490;-53
2024/02/02 09:03:10;;;;;;;6.18;2.67;;;;;;;;;;5090522;28;20158;-54
2024/02/02 09:05:49;;;;;;;8.30;2.63;;;;;;;;;;5090477;28;20032;-51
2024/02/02 09:08:21;;;;;;;10.77;2.97;;;;;;;;;;5090431;28;20029;-51
2024/02/02 09:10:58;;;;;;;6.82;2.95;;;;;;;;;;5090253;28;20028;-51
2024/02/02 09:13:29;;;;;;;6.53;2.58;;;;;;;;;;5090311;28;20025;-53
2024/02/02 09:15:56;;;;;;;9.18;2.83;;;;;;;;;;5090506;28;20040;-51
2024/02/02 09:18:21;;;;;;;10.70;2.95;;;;;;;;;;5090245;28;20024;-53
2024/02/02 09:20:50;;;;;;;9.90;3.78;;;;;;;;;;5090133;28;20376;-51
2024/02/02 09:23:15;;;;;;;7.43;3.63;;;;;;;;;;5089204;28;20035;-53
2024/02/02 09:25:41;;;;;;;10.65;3.53;;;;;;;;;;5090133;28;20032;-51
2024/02/02 09:28:27;;;;;;;8.35;2.78;;;;;;;;;;5090082;28;20390;-53
2024/02/02 09:31:02;;;;;;;7.85;2.22;;;;;;;;;;5089786;28;20035;-51
2024/02/02 09:33:30;;;;;;;5.57;1.98;;;;;;;;;;5090084;28;20445;-53
2024/02/02 09:35:56;;;;;;;7.32;2.78;;;;;;;;;;5089890;28;20413;-51
2024/02/02 09:38:22;;;;;;;5.93;1.95;;;;;;;;;;5089845;28;20028;-53
2024/02/02 09:41:16;;;;;;;6.50;2.88;;;;;;;;;;5089651;28;20048;-51
2024/02/02 09:43:51;;;;;;;4.25;2.08;;;;;;;;;;5076872;28;20197;-51
2024/02/02 09:46:20;;;;;;;6.57;2.70;;;;;;;;;;5076187;28;20041;-53
2024/02/02 09:49:08;;;;;;;7.93;2.90;;;;;;;;;;5076425;28;20364;-52
2024/02/02 09:51:37;;;;;;;8.35;3.03;;;;;;;;;;5076094;28;20073;-62
2024/02/02 09:54:05;;;;;;;5.93;2.35;;;;;;;;;;5076133;28;20544;-61
2024/02/02 09:56:42;;;;;;;9.45;2.17;;;;;;;;;;5075916;28;20021;-62
2024/02/02 09:59:25;;;;;;;7.30;2.97;;;;;;;;;;5075927;28;20077;-60
2024/02/02 10:01:56;;;;;;;7.85;2.63;;;;;;;;;;5074619;28;20387;-60
2024/02/02 10:04:34;;;;;;;7.22;2.28;;;;;;;;;;5075897;28;20052;-60
2024/02/02 10:07:09;;;;;;;6.07;2.53;;;;;;;;;;5075842;28;20039;-60
2024/02/02 10:09:37;;;;;;;6.97;2.30;;;;;;;;;;5074677;28;20032;-60
2024/02/02 10:12:14;;;;;;;8.63;2.88;;;;;;;;;;5075771;28;20024;-60
2024/02/02 10:14:57;;;;;;;8.95;2.80;;;;;;;;;;5075742;28;20040;-51
2024/02/02 10:17:34;;;;;;;9.23;2.85;;;;;;;;;;5075678;28;20104;-53
2024/02/02 10:20:15;;;;;;;6.28;2.58;;;;;;;;;;5075641;28;20025;-53
2024/02/02 10:22:40;;;;;;;7.05;2.40;;;;;;;;;;5075584;28;20103;-51
2024/02/02 10:25:31;;;;;;;7.93;2.72;;;;;;;;;;5075444;28;20116;-53
2024/02/02 10:28:15;;;;;;;7.03;2.22;;;;;;;;;;5066973;28;20075;-53
2024/02/02 10:30:46;;;;;;;7.55;2.38;;;;;;;;;;5074015;28;20090;-53
2024/02/02 10:33:21;;;;;;;6.43;2.47;;;;;;;;;;5075328;28;20047;-53
2024/02/02 10:35:46;;;;;;;7.13;2.42;;;;;;;;;;5075334;28;20035;-53
2024/02/02 10:38:12;;;;;;;10.10;2.92;;;;;;;;;;5075351;28;20107;-54
2024/02/02 10:40:47;;;;;;;11.48;2.95;;;;;;;;;;5073563;28;20033;-54
2024/02/02 10:43:12;;;;;;;10.65;2.83;;;;;;;;;;5075149;28;20033;-53
2024/02/02 10:45:44;;;;;;;7.95;2.40;;;;;;;;;;5075185;28;20093;-53
2024/02/02 10:48:28;;;;;;;5.70;2.38;;;;;;;;;;5075020;28;20024;-53
2024/02/02 10:51:08;;;;;;;5.35;2.17;;;;;;;;;;5074805;28;20033;-53
2024/02/02 10:53:49;;;;;;;5.88;2.35;;;;;;;;;;5074292;28;20527;-53
2024/02/02 10:56:33;;;;;;;5.32;2.30;;;;;;;;;;5074696;28;20463;-54
2024/02/02 10:59:10;;;;;;;6.63;2.20;;;;;;;;;;5074789;28;20029;-54
2024/02/02 11:01:55;;;;;;;5.07;2.38;;;;;;;;;;5074823;28;20471;-53
2024/02/02 11:04:20;;;;;;;5.00;2.13;;;;;;;;;;5074660;28;20040;-53
2024/02/02 11:06:52;;;;;;;9.23;2.45;;;;;;;;;;5074640;28;20017;-54
2024/02/02 11:09:21;;;;;;;6.50;2.20;;;;;;;;;;5074528;28;20040;-54
2024/02/02 11:11:52;;;;;;;3.60;1.95;;;;;;;;;;5073234;28;20111;-53
2024/02/02 11:14:26;;;;;;;5.93;3.08;;;;;;;;;;5074487;28;20028;-53
2024/02/02 11:17:00;;;;;;;9.25;2.80;;;;;;;;;;5074362;28;20024;-62
2024/02/02 11:19:44;;;;;;;19.58;6.65;;;;;;;;;;5074408;28;20024;-62
2024/02/02 11:22:12;;;;;;;6.07;2.72;;;;;;;;;;5074365;28;20051;-61
2024/02/02 11:24:50;;;;;;;9.75;2.55;;;;;;;;;;5074341;28;20032;-62
2024/02/02 11:27:19;;;;;;;7.72;2.53;;;;;;;;;;5074518;28;20036;-62
2024/02/02 11:29:56;;;;;;;6.85;3.47;;;;;;;;;;5074209;28;20068;-63
2024/02/02 11:32:40;;;;;;;19.30;10.93;;;;;;;;;;5074098;28;20074;-62
2024/02/02 11:35:14;;;;;;;13.50;5.70;;;;;;;;;;5074159;28;20107;-62
2024/02/02 11:37:42;;;;;;;6.97;3.55;;;;;;;;;;5074162;28;20033;-62
2024/02/02 11:40:10;;;;;;;9.02;2.83;;;;;;;;;;5074007;28;20044;-62
2024/02/02 11:42:37;;;;;;;12.27;3.40;;;;;;;;;;5073773;28;20044;-63
2024/02/02 11:45:02;;;;;;;8.55;2.95;;;;;;;;;;5073896;28;20063;-62
2024/02/02 11:47:30;;;;;;;7.32;2.45;;;;;;;;;;5073987;28;20064;-53
2024/02/02 11:50:17;;;;;;;8.88;2.72;;;;;;;;;;5073822;28;20059;-53
2024/02/02 11:52:44;;;;;;;7.68;2.80;;;;;;;;;;5072564;28;20042;-54
2024/02/02 11:55:18;;;;;;;8.90;2.85;;;;;;;;;;5073883;28;20476;-54
2024/02/02 11:57:47;;;;;;;6.38;2.72;;;;;;;;;;5073786;28;20077;-53
2024/02/02 12:00:20;;;;;;;5.82;2.30;;;;;;;;;;5073738;28;20391;-54
2024/02/02 12:02:57;;;;;;;7.68;3.05;;;;;;;;;;5073692;28;20025;-53
2024/02/02 12:05:24;;;;;;;12.40;4.50;;;;;;;;;;5073505;28;20430;-53
2024/02/02 12:07:56;;;;;;;15.55;5.00;;;;;;;;;;5073676;28;20043;-53
2024/02/02 12:10:22;;;;;;;11.35;4.43;;;;;;;;;;5073554;28;20480;-53
2024/02/02 12:13:04;;;;;;;10.40;5.40;;;;;;;;;;5072252;28;20024;-54
2024/02/02 12:15:30;;;;;;;8.40;3.10;;;;;;;;;;5073603;28;20024;-53
2024/02/02 12:17:55;;;;;;;6.80;1.98;;;;;;;;;;5073726;28;20028;-53
2024/02/02 12:20:21;;;;;;;2.65;1.67;;;;;;;;;;5073778;28;20059;-54
2024/02/02 12:22:47;;;;;;;4.65;2.00;;;;;;;;;;5073486;28;20032;-53
2024/02/02 12:25:14;;;;;;;3.90;2.08;;;;;;;;;;5073432;28;20033;-53
2024/02/02 12:27:40;;;;;;;5.20;2.47;;;;;;;;;;5073394;28;20017;-54
2024/02/02 12:30:10;;;;;;;6.20;2.28;;;;;;;;;;5073412;28;20042;-54
2024/02/02 12:32:36;;;;;;;8.75;3.13;;;;;;;;;;5073465;28;20361;-54
2024/02/02 12:35:05;;;;;;;9.20;2.83;;;;;;;;;;5073386;28;20107;-53
2024/02/02 12:37:43;;;;;;;7.93;3.17;;;;;;;;;;5073274;28;20031;-54
2024/02/02 12:40:08;;;;;;;11.18;3.38;;;;;;;;;;5072070;28;20489;-54
2024/02/02 12:42:34;;;;;;;7.85;3.42;;;;;;;;;;5073408;28;20120;-53
2024/02/02 12:44:59;;;;;;;5.10;2.72;;;;;;;;;;5073261;28;20365;-53
2024/02/02 12:47:27;;;;;;;4.93;2.75;;;;;;;;;;5073197;28;20023;-53
2024/02/02 12:49:54;;;;;;;5.60;2.28;;;;;;;;;;5073248;28;20518;-62
2024/02/02 12:52:20;;;;;;;4.45;2.38;;;;;;;;;;5073125;28;20108;-62
2024/02/02 12:54:45;;;;;;;6.93;2.80;;;;;;;;;;5073237;28;20167;-63
2024/02/02 12:57:10;;;;;;;5.38;3.05;;;;;;;;;;5073473;28;20031;-62
2024/02/02 12:59:36;;;;;;;7.13;3.25;;;;;;;;;;5073063;28;20025;-62
2024/02/02 13:02:01;;;;;;;8.48;3.28;;;;;;;;;;5073238;28;20036;-62
2024/02/02 13:04:27;;;;;;;10.90;3.28;;;;;;;;;;5073066;28;20013;-62
2024/02/02 13:06:52;;;;;;;6.85;2.95;;;;;;;;;;5055040;28;20041;-62
2024/02/02 13:09:24;;;;;;;10.07;3.03;;;;;;;;;;5073229;28;20414;-62
2024/02/02 13:11:52;;;;;;;6.65;2.95;;;;;;;;;;5073021;28;20120;-53
2024/02/02 13:14:31;;;;;;;6.78;2.72;;;;;;;;;;5072946;28;20436;-53
2024/02/02 13:17:02;;;;;;;6.65;3.13;;;;;;;;;;5073060;28;20028;-53
2024/02/02 13:19:33;;;;;;;8.25;3.78;;;;;;;;;;5076680;28;20090;-62
2024/02/02 13:22:05;;;;;;;9.95;3.75;;;;;;;;;;5076706;28;20030;-62
2024/02/02 13:24:31;;;;;;;10.85;4.05;;;;;;;;;;5076775;28;20107;-62
2024/02/02 13:27:03;;;;;;;13.40;3.75;;;;;;;;;;5076818;28;20413;-62
2024/02/02 13:29:32;;;;;;;5.88;2.92;;;;;;;;;;5076558;28;20071;-62
2024/02/02 13:31:58;;;;;;;9.70;3.65;;;;;;;;;;5075154;28;20399;-62
2024/02/02 13:34:23;;;;;;;10.45;4.00;;;;;;;;;;5075129;28;20028;-62
2024/02/02 13:36:48;;;;;;;9.82;3.75;;;;;;;;;;5075209;28;20032;-62
2024/02/02 13:39:19;;;;;;;10.38;3.55;;;;;;;;;;5076349;28;20056;-62
2024/02/02 13:41:47;;;;;;;8.85;2.97;;;;;;;;;;5075916;28;20084;-62
2024/02/02 13:44:16;;;;;;;8.80;3.45;;;;;;;;;;5076314;28;20494;-63
2024/02/02 13:46:45;;;;;;;9.05;3.35;;;;;;;;;;5076310;28;20365;-62
2024/02/02 13:49:23;;;;;;;9.15;3.85;;;;;;;;;;5076190;28;20428;-62
2024/02/02 13:51:49;;;;;;;10.23;4.47;;;;;;;;;;5076124;28;20042;-53
2024/02/02 13:54:18;;;;;;;9.50;4.38;;;;;;;;;;5074968;28;20024;-53
2024/02/02 13:56:44;;;;;;;8.30;4.15;;;;;;;;;;5076082;28;20533;-53
2024/02/02 13:59:17;;;;;;;9.60;4.07;;;;;;;;;;5075039;28;20393;-53
2024/02/02 14:01:42;;;;;;;8.25;3.40;;;;;;;;;;5076065;28;20037;-53
2024/02/02 14:04:08;;;;;;;11.15;3.83;;;;;;;;;;5075877;28;20020;-53
2024/02/02 14:06:35;;;;;;;10.63;3.97;;;;;;;;;;5075853;28;20139;-53
2024/02/02 14:09:00;;;;;;;10.20;3.80;;;;;;;;;;5075920;28;20024;-53
2024/02/02 14:11:27;;;;;;;8.68;3.90;;;;;;;;;;5075660;28;20512;-53
2024/02/02 14:13:52;;;;;;;9.35;4.38;;;;;;;;;;5075789;28;20094;-53
2024/02/02 14:16:22;;;;;;;10.15;4.15;;;;;;;;;;5075740;28;20028;-53
2024/02/02 14:19:04;;;;;;;8.13;3.53;;;;;;;;;;5075767;28;20032;-53
2024/02/02 14:21:30;;;;;;;7.75;3.13;;;;;;;;;;5075598;28;20033;-53
2024/02/02 14:24:09;;;;;;;9.65;4.35;;;;;;;;;;5075555;28;20506;-53
2024/02/02 14:26:52;;;;;;;7.13;3.53;;;;;;;;;;5075523;28;20056;-53
2024/02/02 14:29:18;;;;;;;8.52;3.97;;;;;;;;;;5074081;28;20375;-53
2024/02/02 14:31:45;;;;;;;6.15;3.13;;;;;;;;;;5074013;28;20467;-53
2024/02/02 14:34:10;;;;;;;8.02;3.75;;;;;;;;;;5075399;28;20498;-53
2024/02/02 14:36:39;;;;;;;10.10;4.57;;;;;;;;;;5075227;28;20028;-53
2024/02/02 14:39:11;;;;;;;10.43;5.15;;;;;;;;;;5075200;28;20021;-53
2024/02/02 14:41:37;;;;;;;10.98;5.75;;;;;;;;;;5074514;28;20045;-52
2024/02/02 14:44:05;;;;;;;10.00;5.13;;;;;;;;;;5074456;28;20094;-53
2024/02/02 14:46:31;;;;;;;9.98;4.82;;;;;;;;;;5073338;28;20037;-53
2024/02/02 14:48:56;;;;;;;11.90;4.97;;;;;;;;;;5074763;28;20069;-53
2024/02/02 14:51:23;;;;;;;9.60;4.45;;;;;;;;;;5074557;28;20059;-57
2024/02/02 14:53:49;;;;;;;7.95;3.90;;;;;;;;;;5074593;28;20022;-62
2024/02/02 14:56:15;;;;;;;6.30;4.10;;;;;;;;;;5074414;28;20032;-62
2024/02/02 14:58:41;;;;;;;8.25;3.72;;;;;;;;;;5074583;28;20383;-63